createdAt,value
2023-02-27T00:10:50.369Z,21.9
2023-02-27T00:22:09.473Z,22
2023-02-27T00:28:02.202Z,22
2023-02-27T00:33:55.645Z,22
2023-02-27T00:39:47.467Z,22
2023-02-27T00:51:01.136Z,22.1
2023-02-27T00:56:38.573Z,22.1
2023-02-27T01:02:32.539Z,22.1
2023-02-27T01:08:25.648Z,22.1
2023-02-27T01:14:02.990Z,22.1
2023-02-27T01:19:40.359Z,22.1
2023-02-27T01:25:33.122Z,22.1
2023-02-27T01:31:26.468Z,22.1
2023-02-27T01:37:19.658Z,22.1
2023-02-27T01:43:12.553Z,22.1
2023-02-27T01:49:05.908Z,22.1
2023-02-27T01:54:57.736Z,22.1
2023-02-27T02:00:51.208Z,22.1
2023-02-27T02:06:44.718Z,22.2
2023-02-27T02:12:37.215Z,22.1
2023-02-27T02:18:30.289Z,22.1
2023-02-27T02:24:23.179Z,22.1
2023-02-27T02:30:16.123Z,22.1
2023-02-27T02:36:10.484Z,22.1
2023-02-27T02:42:02.899Z,22.1
2023-02-27T02:47:41.044Z,22.1
2023-02-27T02:53:36.849Z,22.1
2023-02-27T02:59:29.896Z,22.1
2023-02-27T03:10:59.888Z,22
2023-02-27T03:16:55.588Z,22.1
2023-02-27T03:22:48.848Z,22.1
2023-02-27T03:28:43.178Z,22
2023-02-27T03:34:37.462Z,21.9
2023-02-27T03:46:06.527Z,21.9
2023-02-27T03:57:36.524Z,22
2023-02-27T04:03:29.203Z,22
2023-02-27T04:09:21.589Z,21.9
2023-02-27T04:15:14.944Z,22
2023-02-27T04:21:09.001Z,22
2023-02-27T04:27:01.688Z,22
2023-02-27T04:32:54.522Z,22
2023-02-27T04:38:46.818Z,22
2023-02-27T04:44:39.440Z,21.9
2023-02-27T04:50:20.347Z,21.9
2023-02-27T04:56:15.142Z,21.9
2023-02-27T05:02:08.306Z,21.9
2023-02-27T05:08:00.584Z,21.9
2023-02-27T05:13:53.932Z,21.9
2023-02-27T05:19:47.662Z,22
2023-02-27T05:25:10.737Z,22.1
2023-02-27T05:31:03.636Z,22.1
2023-02-27T05:36:56.411Z,22.1
2023-02-27T05:42:49.544Z,22.1
2023-02-27T05:48:42.408Z,22.1
2023-02-27T05:54:33.830Z,22.1
2023-02-27T06:00:25.930Z,22.1
2023-02-27T06:06:18.870Z,22.1
2023-02-27T06:11:57.338Z,22.2
2023-02-27T06:17:50.978Z,22.2
2023-02-27T06:23:43.323Z,22.2
2023-02-27T06:29:36.796Z,22.2
2023-02-27T06:35:31.518Z,22.1
2023-02-27T06:41:23.822Z,22.1
2023-02-27T06:47:17.992Z,22.1
2023-02-27T06:53:10.805Z,22.1
2023-02-27T06:59:02.428Z,22.2
2023-02-27T07:04:55.750Z,22.2
2023-02-27T07:12:08.041Z,22.3
2023-02-27T07:18:03.860Z,22.3
2023-02-27T07:23:56.191Z,22.3
2023-02-27T07:29:49.616Z,22.3
2023-02-27T07:35:42.292Z,22.2
2023-02-27T07:41:46.550Z,22.2
2023-02-27T07:47:24.241Z,21.9
2023-02-27T07:53:17.468Z,21.8
2023-02-27T07:59:11.027Z,21.8
2023-02-27T08:05:04.274Z,21.8
2023-02-27T08:10:57.813Z,21.8
2023-02-27T08:17:20.632Z,21.8
2023-02-27T08:28:51.662Z,21.8
2023-02-27T08:34:58.811Z,21.8
2023-02-27T08:40:54.876Z,21.8
2023-02-27T08:46:48.194Z,21.9
2023-02-27T08:52:26.592Z,21.9
2023-02-27T08:58:20.299Z,21.9
2023-02-27T09:04:14.512Z,21.9
2023-02-27T09:10:08.517Z,21.9
2023-02-27T09:15:46.607Z,22
2023-02-27T09:21:40.386Z,22.1
2023-02-27T09:27:51.812Z,22.1
2023-02-27T09:33:46.402Z,22
2023-02-27T09:39:39.287Z,22
2023-02-27T09:45:46.069Z,22
2023-02-27T09:51:39.792Z,22
2023-02-27T09:57:33.456Z,22
2023-02-27T10:03:26.873Z,22
2023-02-27T10:09:19.813Z,22.1
2023-02-27T10:15:11.699Z,22.1
2023-02-27T10:21:18.966Z,22.1
2023-02-27T10:27:09.064Z,22.1
2023-02-27T10:33:00.052Z,22.1
2023-02-27T10:39:01.397Z,22.1
2023-02-27T10:44:54.669Z,22.1
2023-02-27T10:50:49.164Z,22.1
2023-02-27T10:56:27.821Z,22.1
2023-02-27T11:02:05.298Z,22.2
2023-02-27T11:07:43.297Z,22.2
2023-02-27T11:13:37.752Z,22.3
2023-02-27T11:19:14.967Z,22.3
2023-02-27T11:25:07.668Z,22.3
2023-02-27T11:30:59.869Z,22.3
2023-02-27T11:36:53.227Z,22.3
2023-02-27T11:42:17.256Z,22.3
2023-02-27T11:49:36.940Z,22.3
2023-02-27T11:55:28.876Z,22.3
2023-02-27T12:01:21.789Z,22.1
2023-02-27T12:07:15.391Z,22.2
2023-02-27T12:13:07.696Z,22.2
2023-02-27T12:18:46.507Z,22.3
2023-02-27T12:24:24.228Z,22.3
2023-02-27T12:30:17.496Z,22.3
2023-02-27T12:36:12.366Z,22.4
2023-02-27T12:42:05.109Z,22.4
2023-02-27T12:47:42.774Z,22.3
2023-02-27T12:53:36.136Z,22.3
2023-02-27T12:59:30.360Z,22.3
2023-02-27T13:05:08.323Z,22.4
2023-02-27T13:11:01.163Z,22.4
2023-02-27T13:16:54.374Z,22.4
2023-02-27T13:22:32.728Z,22.4
2023-02-27T13:28:25.894Z,22.4
2023-02-27T13:34:38.608Z,22.4
2023-02-27T13:40:31.769Z,22.4
2023-02-27T13:46:37.013Z,22.4
2023-02-27T13:52:23.106Z,22.4
2023-02-27T13:58:29.265Z,22.4
2023-02-27T14:04:05.528Z,22.4
2023-02-27T14:09:41.453Z,22.4
2023-02-27T14:15:31.343Z,22.4
2023-02-27T14:21:36.743Z,22.4
2023-02-27T14:27:47.022Z,22.4
2023-02-27T14:33:56.089Z,22.4
2023-02-27T14:39:49.915Z,22.4
2023-02-27T14:45:36.580Z,22.3
2023-02-27T14:51:30.658Z,22.3
2023-02-27T14:57:23.831Z,22.3
2023-02-27T15:03:27.480Z,22.3
2023-02-27T15:09:20.586Z,22.3
2023-02-27T15:15:22.520Z,22.3
2023-02-27T15:21:23.657Z,22.3
2023-02-27T15:27:18.552Z,22.3
2023-02-27T15:33:12.607Z,22.3
2023-02-27T15:38:52.458Z,22.3
2023-02-27T15:44:45.153Z,22.3
2023-02-27T15:50:37.883Z,22.2
2023-02-27T15:56:14.963Z,22.2
2023-02-27T16:02:19.711Z,22.2
2023-02-27T16:08:00.438Z,22.1
2023-02-27T16:13:53.215Z,22.1
2023-02-27T16:19:47.373Z,22.1
2023-02-27T16:25:40.351Z,22.1
2023-02-27T16:31:33.679Z,22.1
2023-02-27T16:37:30.053Z,22
2023-02-27T16:49:14.086Z,22
2023-02-27T16:55:10.137Z,21.9
2023-02-27T17:01:10.289Z,21.9
2023-02-27T17:06:54.291Z,21.9
2023-02-27T17:12:30.831Z,21.9
2023-02-27T17:18:26.000Z,21.9
2023-02-27T17:24:19.982Z,21.9
2023-02-27T17:30:11.150Z,21.9
2023-02-27T17:36:06.508Z,21.9
2023-02-27T17:41:43.685Z,21.9
2023-02-27T17:47:37.561Z,21.9
2023-02-27T17:53:30.609Z,21.9
2023-02-27T17:59:22.918Z,21.9
2023-02-27T18:05:15.427Z,21.9
2023-02-27T18:11:08.434Z,21.9
2023-02-27T18:17:02.946Z,21.9
2023-02-27T18:22:56.013Z,21.9
2023-02-27T18:28:57.907Z,21.9
2023-02-27T18:34:50.593Z,21.9
2023-02-27T18:40:43.898Z,21.9
2023-02-27T18:46:37.745Z,21.9
2023-02-27T18:52:32.278Z,21.9
2023-02-27T18:58:24.528Z,21.9
2023-02-27T19:04:21.386Z,21.9
2023-02-27T19:10:13.740Z,21.9
2023-02-27T19:16:05.605Z,21.9
2023-02-27T19:21:58.900Z,21.9
2023-02-27T19:27:51.931Z,21.8
2023-02-27T19:33:29.530Z,21.8
2023-02-27T19:39:23.528Z,21.8
2023-02-27T19:45:00.746Z,21.9
2023-02-27T19:50:54.473Z,21.8
2023-02-27T19:56:48.079Z,21.8
2023-02-27T20:02:41.649Z,21.8
2023-02-27T20:08:33.976Z,21.8
2023-02-27T20:14:26.919Z,21.8
2023-02-27T20:20:20.456Z,21.8
2023-02-27T20:26:12.273Z,21.8
2023-02-27T20:32:06.926Z,21.8
2023-02-27T20:38:00.269Z,21.8
2023-02-27T20:43:52.315Z,21.8
2023-02-27T20:49:45.428Z,21.8
2023-02-27T20:55:38.398Z,21.8
2023-02-27T21:01:31.524Z,21.8
2023-02-27T21:07:35.599Z,21.8
2023-02-27T21:13:28.506Z,24.3
2023-02-27T21:19:20.919Z,22.8
2023-02-27T21:25:13.964Z,21.9
2023-02-27T21:31:06.433Z,21.8
2023-02-27T21:37:01.514Z,21.7
2023-02-27T21:42:54.290Z,21.6
2023-02-27T21:48:46.544Z,21.5
2023-02-27T21:54:56.642Z,21.5
2023-02-27T22:00:49.325Z,21.4
2023-02-27T22:06:41.945Z,21.4
2023-02-27T22:12:35.931Z,21.4
2023-02-27T22:18:28.406Z,21.4
2023-02-27T22:24:20.792Z,21.4
2023-02-27T22:30:15.353Z,21.4
2023-02-27T22:36:09.252Z,21.4
2023-02-27T22:42:01.700Z,21.4
2023-02-27T22:47:53.665Z,21.4
2023-02-27T22:53:31.947Z,21.4
2023-02-27T22:59:26.244Z,21.4
2023-02-27T23:05:18.982Z,21.4
2023-02-27T23:11:12.589Z,21.5
2023-02-27T23:17:05.763Z,21.5
2023-02-27T23:23:11.789Z,21.5
2023-02-27T23:29:20.092Z,21.5
2023-02-27T23:35:06.119Z,21.4
2023-02-27T23:40:58.651Z,21.4
2023-02-27T23:46:51.211Z,21.4
2023-02-27T23:52:43.187Z,21.4
